Flight Track Log - Related Links

Times and Time Zones

All times are in EDT time to prevent confusion due to time zone crossing. See the SWA2854 flight status page for this flight to view local times or setup timezone preferences in your user account.

Time Position Orientation Groundspeed Altitude Reporting Facility
EDT Latitude Longitude Course Direction KTS MPH feet Rate Location/Type
Sat 08:10:09 PM 39.9167 -104.6667 123° Southeast 177 204 7,000  Level Denver TRACON
Sat 08:11:09 PM 39.8833 -104.6000 123° Southeast 244 281 9,000 2,450 Climbing Denver TRACON
Sat 08:12:09 PM 39.8500 -104.5000 113° Southeast 317 365 11,900 3,130 Climbing Denver TRACON
Sat 08:13:27 PM 39.7961 -104.3558 116° Southeast 361 415 16,200 3,324 Climbing Denver Center
Sat 08:14:28 PM 39.7483 -104.2172 114° Southeast 392 451 19,600 3,171 Climbing Denver Center
Sat 08:15:30 PM 39.7011 -104.0808 114° Southeast 413 475 22,700 2,855 Climbing Denver Center
Sat 08:16:32 PM 39.6475 -103.9331 115° Southeast 426 490 25,500 2,537 Climbing Denver Center
Sat 08:17:33 PM 39.5886 -103.7903 118° Southeast 447 514 27,900 2,439 Climbing Denver Center
Sat 08:18:35 PM 39.5500 -103.6381 108° East 441 507 30,500 2,274 Climbing Denver Center
Sat 08:19:37 PM 39.5094 -103.4828 109° East 455 524 32,600 1,854 Climbing Denver Center
Sat 08:20:38 PM 39.4678 -103.3261 109° East 460 529 34,300 1,415 Climbing Denver Center
Sat 08:21:40 PM 39.4261 -103.1664 109° East 467 537 35,500 1,366 Climbing Denver Center
Sat 08:22:41 PM 39.3811 -103.0022 109° East 479 551 37,100 1,610 Climbing Denver Center
Sat 08:23:43 PM 39.3289 -102.8050 109° East 485 558 38,800 1,268 Climbing Denver Center
Sat 08:24:44 PM 39.2883 -102.6556 109° East 488 562 39,700 878 Climbing Denver Center
Sat 08:25:46 PM 39.2369 -102.4689 110° East 494 568 40,600 634 Climbing Denver Center
Sat 08:26:47 PM 39.1928 -102.3056 109° East 502 578 41,000 195 Climbing Denver Center
Sat 08:27:49 PM 39.1414 -102.1197 110° East 495 570 41,000  Level Denver Center
Sat 08:28:50 PM 39.0969 -101.9608 110° East 493 567 41,000  Level Denver Center
Sat 08:29:52 PM 39.0522 -101.8042 110° East 489 563 41,000  Level Denver Center
Sat 08:30:53 PM 39.0000 -101.6211 110° East 489 563 41,000  Level Denver Center
Sat 08:31:55 PM 38.9542 -101.4644 111° Southeast 488 562 41,000  Level Denver Center
Sat 08:32:56 PM 38.8925 -101.2886 114° Southeast 482 555 41,000  Level Denver Center
Sat 08:33:58 PM 38.8383 -101.1392 115° Southeast 482 555 41,000  Level Denver Center
Sat 08:34:59 PM 38.7842 -100.9878 115° Southeast 486 559 41,000  Level Denver Center
Sat 08:36:01 PM 38.7206 -100.8119 115° Southeast 486 559 41,000  Level Denver Center
Sat 08:37:02 PM 38.6750 -100.6844 115° Southeast 490 564 41,000  Level Denver Center
Sat 08:38:03 PM 38.6094 -100.5081 115° Southeast 491 565 41,000  Level Denver Center
Sat 08:38:46 PM 38.5622 -100.3808 115° Southeast 490 564 41,000  Level Kansas City Center
Sat 08:39:47 PM 38.5069 -100.2300 115° Southeast 489 563 41,000  Level Kansas City Center
Sat 08:40:49 PM 38.4414 -100.0550 116° Southeast 488 562 41,000  Level Kansas City Center
Sat 08:41:50 PM 38.3856 -99.9089 116° Southeast 483 556 41,000  Level Kansas City Center
Sat 08:42:51 PM 38.3306 -99.7611 115° Southeast 481 554 41,000  Level Kansas City Center
Sat 08:43:52 PM 38.2656 -99.5908 116° Southeast 478 550 41,000  Level Kansas City Center
Sat 08:44:53 PM 38.2094 -99.4450 116° Southeast 480 552 41,000  Level Kansas City Center
Sat 08:45:54 PM 38.1522 -99.2936 116° Southeast 479 551 41,000  Level Kansas City Center
Sat 08:46:56 PM 38.0939 -99.1414 116° Southeast 478 550 41,000  Level Kansas City Center
Sat 08:47:57 PM 38.0358 -98.9908 116° Southeast 477 549 41,000  Level Kansas City Center
Sat 08:48:58 PM 37.9778 -98.8386 116° Southeast 480 552 41,000  Level Kansas City Center
Sat 08:49:59 PM 37.9194 -98.6878 116° Southeast 479 551 41,000  Level Kansas City Center
Sat 08:51:00 PM 37.8617 -98.5367 116° Southeast 479 551 41,000  Level Kansas City Center
Sat 08:52:01 PM 37.7900 -98.3564 117° Southeast 482 555 41,000  Level Kansas City Center
Sat 08:53:02 PM 37.7308 -98.2078 117° Southeast 480 552 41,000  Level Kansas City Center
Sat 08:54:04 PM 37.6722 -98.0572 116° Southeast 480 552 41,000  Level Kansas City Center
Sat 08:55:05 PM 37.6128 -97.9086 117° Southeast 482 555 41,000  Level Kansas City Center
Sat 08:56:06 PM 37.5525 -97.7592 117° Southeast 483 556 41,000  Level Kansas City Center
Sat 08:57:07 PM 37.4925 -97.6094 117° Southeast 483 556 41,000  Level Kansas City Center
Sat 08:58:08 PM 37.4314 -97.4600 117° Southeast 482 555 41,000  Level Kansas City Center
Sat 08:59:09 PM 37.3717 -97.3106 117° Southeast 481 554 41,000  Level Kansas City Center
Sat 09:00:10 PM 37.2967 -97.1350 118° Southeast 479 551 41,000  Level Kansas City Center
Sat 09:01:11 PM 37.2361 -96.9853 117° Southeast 482 555 41,000  Level Kansas City Center
Sat 09:02:12 PM 37.1753 -96.8361 117° Southeast 483 556 41,000 -49 Level Kansas City Center
Sat 09:03:13 PM 37.1106 -96.6803 117° Southeast 481 554 40,900  Descending Kansas City Center
Sat 09:04:15 PM 37.0489 -96.5306 117° Southeast 482 555 41,000 49 Climbing Kansas City Center
Sat 09:05:16 PM 36.9869 -96.3817 117° Southeast 482 555 41,000  Level Kansas City Center
Sat 09:06:17 PM 36.9244 -96.2331 118° Southeast 483 556 41,000  Level Kansas City Center
Sat 09:07:18 PM 36.8619 -96.0839 118° Southeast 483 556 41,000  Level Kansas City Center
Sat 09:08:19 PM 36.8097 -95.9311 113° Southeast 479 551 41,000  Level Kansas City Center
Sat 09:09:20 PM 36.7672 -95.7681 108° East 490 564 41,000  Level Kansas City Center
Sat 09:10:21 PM 36.7233 -95.6072 109° East 487 560 41,000  Level Kansas City Center
Sat 09:11:22 PM 36.6803 -95.4464 108° East 484 557 41,000  Level Kansas City Center
Sat 09:12:23 PM 36.6353 -95.2839 109° East 486 559 41,000  Level Kansas City Center
Sat 09:13:24 PM 36.5892 -95.1242 110° East 486 559 41,000  Level Kansas City Center
Sat 09:14:25 PM 36.5439 -94.9617 109° East 489 563 41,000  Level Kansas City Center
Sat 09:15:26 PM 36.4981 -94.8044 110° East 484 557 41,000  Level Kansas City Center
Sat 09:16:27 PM 36.4525 -94.6450 110° East 485 558 41,000  Level Kansas City Center
Sat 09:17:28 PM 36.4067 -94.4847 110° East 488 562 41,000  Level Kansas City Center
Sat 09:18:29 PM 36.3603 -94.3267 110° East 488 562 41,000  Level Kansas City Center
Sat 09:19:03 PM 36.3350 -94.2328 108° East 485 558 41,000  Level Memphis Center
Sat 09:20:04 PM 36.2908 -94.0761 109° East 482 555 41,000  Level Memphis Center
Sat 09:21:05 PM 36.2450 -93.9206 110° East 481 554 41,000  Level Memphis Center
Sat 09:22:06 PM 36.2003 -93.7653 110° East 479 551 41,000  Level Memphis Center
Sat 09:23:06 PM 36.1503 -93.5967 110° East 478 550 41,000  Level Memphis Center
Sat 09:24:07 PM 36.1044 -93.4417 110° East 479 551 41,000  Level Memphis Center
Sat 09:25:08 PM 36.0583 -93.2869 110° East 478 550 41,000  Level Memphis Center
Sat 09:26:09 PM 36.0108 -93.1283 110° East 486 559 41,000  Level Memphis Center
Sat 09:27:09 PM 35.9642 -92.9708 110° East 488 562 41,000  Level Memphis Center
Sat 09:28:11 PM 35.9158 -92.8117 111° Southeast 491 565 41,000  Level Memphis Center
Sat 09:29:11 PM 35.8681 -92.6533 110° East 491 565 41,000  Level Memphis Center
Sat 09:30:12 PM 35.8197 -92.4967 111° Southeast 487 560 41,000  Level Memphis Center
Sat 09:31:12 PM 35.7728 -92.3419 110° East 480 552 41,000  Level Memphis Center
Sat 09:32:13 PM 35.7244 -92.1853 111° Southeast 486 559 41,000  Level Memphis Center
Sat 09:33:14 PM 35.6761 -92.0314 111° Southeast 484 557 41,000  Level Memphis Center
Sat 09:34:15 PM 35.6303 -91.8781 110° East 479 551 41,000  Level Memphis Center
Sat 09:35:15 PM 35.5822 -91.7253 111° Southeast 479 551 41,000  Level Memphis Center
Sat 09:36:16 PM 35.5333 -91.5728 111° Southeast 479 551 41,000  Level Memphis Center
Sat 09:37:17 PM 35.4750 -91.3903 111° Southeast 479 551 41,000  Level Memphis Center
Sat 09:38:18 PM 35.4256 -91.2361 111° Southeast 482 555 41,000  Level Memphis Center
Sat 09:39:18 PM 35.3767 -91.0814 111° Southeast 482 555 41,000  Level Memphis Center
Sat 09:40:19 PM 35.3481 -90.9172 102° East 489 563 41,000  Level Memphis Center
Sat 09:41:20 PM 35.3158 -90.7553 104° East 486 559 41,000  Level Memphis Center
Sat 09:42:21 PM 35.2828 -90.5928 104° East 486 559 41,000  Level Memphis Center
Sat 09:43:21 PM 35.2519 -90.4314 103° East 484 557 41,000  Level Memphis Center
Sat 09:44:22 PM 35.2197 -90.2700 104° East 484 557 41,000  Level Memphis Center
Sat 09:45:23 PM 35.1875 -90.1097 104° East 481 554 41,000  Level Memphis Center
Sat 09:46:24 PM 35.1556 -89.9500 104° East 478 550 41,000  Level Memphis Center
Sat 09:47:25 PM 35.1236 -89.7906 104° East 476 548 41,000  Level Memphis Center
Sat 09:48:25 PM 35.0961 -89.6561 104° East 478 550 41,000  Level Memphis Center
Sat 09:49:26 PM 35.0628 -89.4969 104° East 476 548 41,000  Level Memphis Center
Sat 09:50:27 PM 35.0300 -89.3394 104° East 472 543 41,000  Level Memphis Center
Sat 09:51:28 PM 34.9969 -89.1825 104° East 472 543 41,000  Level Memphis Center
Sat 09:52:29 PM 34.9647 -89.0269 104° East 469 540 41,000  Level Memphis Center
Sat 09:53:29 PM 34.9306 -88.8725 105° East 468 539 41,000  Level Memphis Center
Sat 09:54:30 PM 34.8981 -88.7161 104° East 471 542 41,000  Level Memphis Center
Sat 09:55:31 PM 34.8644 -88.5617 105° East 469 540 41,000 -98 Level Memphis Center
Sat 09:56:32 PM 34.8303 -88.4053 105° East 467 537 40,800 -590 Descending Memphis Center
Sat 09:57:33 PM 34.7978 -88.2511 104° East 470 541 39,800 -942 Descending Memphis Center
Sat 09:58:33 PM 34.7656 -88.0992 104° East 466 536 38,900 -942 Descending Memphis Center
Sat 09:59:34 PM 34.7311 -87.9444 105° East 469 540 37,900 -934 Descending Memphis Center
Sat 10:00:35 PM 34.6975 -87.7889 105° East 471 542 37,000 -934 Descending Memphis Center
Sat 10:01:36 PM 34.6642 -87.6331 105° East 472 543 36,000 -1,672 Descending Memphis Center
Sat 10:02:37 PM 34.6283 -87.4789 106° East 474 545 33,600 -1,748 Descending Memphis Center
Sat 10:03:19 PM 34.6056 -87.3472 102° East 474 545 33,000 -353 Descending Atlanta Center
Sat 10:04:19 PM 34.5761 -87.1997 104° East 468 539 33,000  Level Atlanta Center
Sat 10:05:19 PM 34.5483 -87.0575 103° East 448 516 33,000  Level Atlanta Center
Sat 10:06:19 PM 34.5225 -86.9128 102° East 438 504 33,000  Level Atlanta Center
Sat 10:07:19 PM 34.4944 -86.7708 103° East 433 498 33,000  Level Atlanta Center
Sat 10:08:19 PM 34.4642 -86.6289 104° East 433 498 33,000  Level Atlanta Center
Sat 10:09:19 PM 34.4378 -86.4844 102° East 439 505 33,000  Level Atlanta Center
Sat 10:10:19 PM 34.4094 -86.3400 103° East 439 505 33,000  Level Atlanta Center
Sat 10:11:19 PM 34.3828 -86.1983 103° East 439 505 33,000  Level Atlanta Center
Sat 10:12:19 PM 34.3539 -86.0542 104° East 439 505 33,000 -600 Level Atlanta Center
Sat 10:13:19 PM 34.3247 -85.9128 104° East 439 505 31,800 -2,000 Descending Atlanta Center
Sat 10:14:19 PM 34.2975 -85.7739 103° East 433 498 29,000 -3,000 Descending Atlanta Center
Sat 10:15:19 PM 34.2681 -85.6325 104° East 433 498 25,800 -2,900 Descending Atlanta Center
Sat 10:16:19 PM 34.2428 -85.4886 102° East 433 498 23,200 -2,550 Descending Atlanta Center
Sat 10:17:19 PM 34.2131 -85.3500 105° East 426 490 20,700 -2,486 Descending Atlanta Center
Sat 10:19:20 PM 34.1500 -85.1000 107° East 390 449 15,700 -2,433 Descending Atlanta TRACON
Sat 10:20:19 PM 34.0700 -85.0169 139° Southeast 370 426 13,400 -2,118 Descending Atlanta Center
Sat 10:21:19 PM 33.9872 -84.9508 146° Southeast 363 418 11,500 -1,650 Descending Atlanta Center
Sat 10:22:19 PM 33.9125 -84.8850 144° Southeast 345 397 10,100 -1,500 Descending Atlanta Center
Sat 10:23:19 PM 33.8461 -84.8242 143° Southeast 313 360 8,500 -1,700 Descending Atlanta Center
Sat 10:24:19 PM 33.7839 -84.7661 142° Southeast 296 341 6,700 -1,700 Descending Atlanta Center
Sat 10:25:19 PM 33.7236 -84.7106 143° Southeast 281 323 5,100 -1,250 Descending Atlanta Center
Sat 10:26:19 PM 33.6758 -84.6553 136° Southeast 253 291 4,200 -750 Descending Atlanta Center
Sat 10:27:19 PM 33.6511 -84.6053 121° Southeast 216 249 3,600 -727 Descending Atlanta Center
Sat 10:28:31 PM 33.6500 -84.5333 91° East 128 147 2,600 -727 Descending Atlanta TRACON
Sat 10:29:31 PM 33.6500 -84.5000 90° East 112 129 2,000 -579 Descending Atlanta TRACON
Sat 10:30:25 PM 33.6500 -84.4667 90° East 116 133 1,500 -556 Descending Atlanta TRACON
Sat 10:32:00 PM 33.6367 -84.4279 North  Level Estimated
Sat 10:39:00 PM 33.6367 -84.4279 North  Level Estimated

Login

Don't have an account? Register now (free) for customized features, flight alerts, and more!